Time;durP1;ratioP1;P1;durP2;ratioP2;P2;SDS_P1;SDS_P2;PMS_P1;PMS_P2;Temp;Humidity;BMP_temperature;BMP_pressure;BME280_temperature;BME280_humidity;BME280_pressure;Samples;Min_cycle;Max_cycle;Signal;HPM_P1;HPM_P2
2022/07/13 00:02:21;;;;;;;4.70;2.45;;;;;;;;;;5115607;27;20102;-47
2022/07/13 00:04:46;;;;;;;2.13;1.70;;;;;;;;;;5113271;27;20046;-49
2022/07/13 00:07:12;;;;;;;15.07;2.70;;;;;;;;;;5116297;27;20046;-45
2022/07/13 00:09:37;;;;;;;2.50;2.30;;;;;;;;;;5116630;27;20050;-46
2022/07/13 00:12:02;;;;;;;4.55;2.47;;;;;;;;;;5113048;27;20072;-50
2022/07/13 00:14:29;;;;;;;5.05;2.78;;;;;;;;;;5111801;27;20040;-46
2022/07/13 00:16:54;;;;;;;4.90;2.75;;;;;;;;;;5115353;27;20040;-47
2022/07/13 00:19:19;;;;;;;6.78;3.03;;;;;;;;;;5114571;27;21930;-47
2022/07/13 00:21:45;;;;;;;3.13;2.65;;;;;;;;;;5111873;28;20075;-43
2022/07/13 00:24:14;;;;;;;2.75;1.65;;;;;;;;;;5114540;28;20470;-48
2022/07/13 00:26:39;;;;;;;6.25;2.67;;;;;;;;;;5114103;27;20039;-43
2022/07/13 00:29:04;;;;;;;3.05;1.88;;;;;;;;;;5115261;27;20441;-44
2022/07/13 00:31:30;;;;;;;2.13;1.92;;;;;;;;;;5114598;27;20123;-44
2022/07/13 00:33:55;;;;;;;3.75;2.95;;;;;;;;;;5109473;27;20062;-44
2022/07/13 00:36:20;;;;;;;5.38;2.65;;;;;;;;;;5111528;28;20534;-47
2022/07/13 00:38:45;;;;;;;3.35;2.80;;;;;;;;;;5114825;27;20096;-47
2022/07/13 00:41:11;;;;;;;2.95;2.17;;;;;;;;;;5113293;27;20050;-44
2022/07/13 00:43:36;;;;;;;3.65;2.45;;;;;;;;;;5116204;27;20602;-48
2022/07/13 00:46:02;;;;;;;5.85;2.53;;;;;;;;;;5111184;27;20043;-46
2022/07/13 00:48:27;;;;;;;4.88;2.33;;;;;;;;;;5114806;28;20095;-48
2022/07/13 00:50:52;;;;;;;6.05;3.60;;;;;;;;;;5106510;27;20066;-43
2022/07/13 00:53:18;;;;;;;4.18;2.53;;;;;;;;;;5114046;27;20035;-46
2022/07/13 00:55:44;;;;;;;2.95;2.40;;;;;;;;;;5114356;27;20051;-46
2022/07/13 00:58:10;;;;;;;3.50;2.28;;;;;;;;;;5113564;27;20057;-48
2022/07/13 01:00:36;;;;;;;2.67;2.42;;;;;;;;;;5105031;27;20051;-44
2022/07/13 01:03:02;;;;;;;3.25;2.70;;;;;;;;;;5110986;27;20070;-47
2022/07/13 01:05:27;;;;;;;2.85;2.33;;;;;;;;;;5109464;27;20608;-44
2022/07/13 01:07:53;;;;;;;5.22;3.50;;;;;;;;;;5114175;27;20166;-46
2022/07/13 01:10:19;;;;;;;4.10;3.47;;;;;;;;;;5108868;27;20042;-45
2022/07/13 01:12:45;;;;;;;3.40;3.00;;;;;;;;;;5114508;27;20666;-45
2022/07/13 01:15:10;;;;;;;6.03;3.20;;;;;;;;;;5113498;27;20027;-48
2022/07/13 01:17:36;;;;;;;3.47;2.85;;;;;;;;;;5110930;27;20047;-47
2022/07/13 01:20:02;;;;;;;3.50;2.15;;;;;;;;;;5112054;27;20032;-44
2022/07/13 01:22:49;;;;;;;4.20;2.67;;;;;;;;;;5113400;27;20047;-46
2022/07/13 01:25:15;;;;;;;4.38;1.90;;;;;;;;;;5106916;27;20525;-46
2022/07/13 01:27:41;;;;;;;10.57;3.05;;;;;;;;;;5111249;27;20052;-45
2022/07/13 01:30:07;;;;;;;3.40;2.40;;;;;;;;;;5109747;28;20047;-46
2022/07/13 01:32:43;;;;;;;5.43;2.72;;;;;;;;;;5112020;27;20489;-47
2022/07/13 01:35:08;;;;;;;8.10;2.28;;;;;;;;;;5111119;28;20494;-50
2022/07/13 01:37:33;;;;;;;5.38;3.45;;;;;;;;;;5110099;28;20051;-44
2022/07/13 01:39:58;;;;;;;8.00;3.92;;;;;;;;;;5113954;27;20046;-48
2022/07/13 01:42:24;;;;;;;2.95;2.47;;;;;;;;;;5114743;27;20431;-49
2022/07/13 01:44:50;;;;;;;2.88;2.45;;;;;;;;;;5110845;27;20043;-47
2022/07/13 01:47:15;;;;;;;2.10;1.90;;;;;;;;;;5108761;28;20035;-47
2022/07/13 01:49:40;;;;;;;6.10;2.60;;;;;;;;;;5111851;27;20054;-48
2022/07/13 01:52:06;;;;;;;9.95;2.72;;;;;;;;;;5113470;27;20364;-45
2022/07/13 01:54:31;;;;;;;4.63;2.78;;;;;;;;;;5115256;27;20078;-44
2022/07/13 01:56:56;;;;;;;2.65;2.45;;;;;;;;;;5117556;27;20039;-46
2022/07/13 01:59:22;;;;;;;3.38;2.30;;;;;;;;;;5114014;27;20136;-43
2022/07/13 02:01:47;;;;;;;3.70;2.75;;;;;;;;;;5110606;27;20047;-49
2022/07/13 02:04:12;;;;;;;4.25;2.15;;;;;;;;;;5112247;27;20044;-44
2022/07/13 02:06:37;;;;;;;4.15;3.10;;;;;;;;;;5114028;27;20080;-45
2022/07/13 02:09:03;;;;;;;2.78;1.95;;;;;;;;;;5114607;27;20055;-46
2022/07/13 02:11:28;;;;;;;2.67;2.42;;;;;;;;;;5112534;27;20031;-49
2022/07/13 02:13:54;;;;;;;5.75;3.47;;;;;;;;;;5110475;27;20104;-46
2022/07/13 02:16:19;;;;;;;2.47;2.28;;;;;;;;;;5112916;27;20058;-44
2022/07/13 02:18:45;;;;;;;3.22;2.42;;;;;;;;;;5111246;27;20043;-46
2022/07/13 02:21:11;;;;;;;5.60;2.95;;;;;;;;;;5111056;27;20047;-46
2022/07/13 02:23:36;;;;;;;5.03;3.38;;;;;;;;;;5116588;27;20067;-44
2022/07/13 02:26:01;;;;;;;2.65;1.92;;;;;;;;;;5114635;27;20114;-47
2022/07/13 02:28:27;;;;;;;4.95;3.17;;;;;;;;;;5116316;27;20134;-49
2022/07/13 02:30:52;;;;;;;2.63;2.15;;;;;;;;;;5117257;27;20116;-49
2022/07/13 02:33:17;;;;;;;6.03;3.17;;;;;;;;;;5111960;28;20462;-45
2022/07/13 02:35:51;;;;;;;5.32;2.65;;;;;;;;;;5115839;27;20122;-47
2022/07/13 02:38:19;;;;;;;3.92;3.53;;;;;;;;;;5114431;27;20108;-49
2022/07/13 02:40:45;;;;;;;2.75;2.13;;;;;;;;;;5108720;27;20481;-45
2022/07/13 02:43:10;;;;;;;4.28;2.72;;;;;;;;;;5109451;27;20100;-46
2022/07/13 02:45:35;;;;;;;4.43;2.05;;;;;;;;;;5113568;27;20111;-45
2022/07/13 02:48:00;;;;;;;10.70;2.67;;;;;;;;;;5116151;27;20092;-48
2022/07/13 02:50:26;;;;;;;2.53;1.98;;;;;;;;;;5114047;27;20207;-46
2022/07/13 02:52:52;;;;;;;3.53;2.17;;;;;;;;;;5110787;27;20051;-46
2022/07/13 02:55:17;;;;;;;4.13;3.20;;;;;;;;;;5113333;27;20330;-47
2022/07/13 02:57:43;;;;;;;4.43;3.35;;;;;;;;;;5111277;27;20514;-48
2022/07/13 03:00:08;;;;;;;2.50;2.25;;;;;;;;;;5110853;27;20049;-44
2022/07/13 03:02:34;;;;;;;2.72;2.30;;;;;;;;;;5111183;27;20051;-47
2022/07/13 03:04:59;;;;;;;4.95;2.22;;;;;;;;;;5118450;27;20031;-44
2022/07/13 03:07:24;;;;;;;3.92;1.98;;;;;;;;;;5113876;27;20070;-46
2022/07/13 03:09:50;;;;;;;3.00;2.60;;;;;;;;;;5115673;27;20065;-45
2022/07/13 03:12:15;;;;;;;3.35;2.95;;;;;;;;;;5119953;27;20099;-44
2022/07/13 03:14:40;;;;;;;3.47;2.60;;;;;;;;;;5120907;27;20042;-43
2022/07/13 03:17:06;;;;;;;4.65;2.30;;;;;;;;;;5110140;27;20078;-44
2022/07/13 03:19:31;;;;;;;25.15;3.25;;;;;;;;;;5110668;27;20491;-46
2022/07/13 03:21:56;;;;;;;4.25;2.85;;;;;;;;;;5116743;27;20096;-45
2022/07/13 03:24:22;;;;;;;2.85;2.33;;;;;;;;;;5116434;27;20049;-44
2022/07/13 03:26:47;;;;;;;2.53;2.08;;;;;;;;;;5114507;27;20051;-45
2022/07/13 03:29:12;;;;;;;3.05;1.98;;;;;;;;;;5109782;28;20499;-44
2022/07/13 03:31:38;;;;;;;3.20;2.83;;;;;;;;;;5118165;27;20085;-45
2022/07/13 03:34:03;;;;;;;5.97;3.45;;;;;;;;;;5112814;27;20063;-46
2022/07/13 03:36:30;;;;;;;21.30;3.38;;;;;;;;;;5116436;28;20047;-46
2022/07/13 03:38:56;;;;;;;4.50;3.45;;;;;;;;;;5113299;27;20530;-44
2022/07/13 03:41:21;;;;;;;7.43;2.58;;;;;;;;;;5112189;27;20039;-46
2022/07/13 03:43:46;;;;;;;3.55;3.13;;;;;;;;;;5114438;27;20067;-43
2022/07/13 03:46:12;;;;;;;7.25;3.20;;;;;;;;;;5113064;27;20043;-47
2022/07/13 03:48:37;;;;;;;7.13;3.10;;;;;;;;;;5117438;27;20521;-44
2022/07/13 03:51:02;;;;;;;4.63;2.05;;;;;;;;;;5115870;27;20043;-47
2022/07/13 03:53:28;;;;;;;3.15;2.60;;;;;;;;;;5114357;27;20134;-49
2022/07/13 03:55:53;;;;;;;3.45;2.65;;;;;;;;;;5113993;27;20039;-47
2022/07/13 03:58:18;;;;;;;2.70;2.08;;;;;;;;;;5115748;27;20428;-45
2022/07/13 04:00:43;;;;;;;5.13;2.72;;;;;;;;;;5112772;27;20058;-45
2022/07/13 04:03:09;;;;;;;12.70;2.80;;;;;;;;;;5114683;27;20042;-44
2022/07/13 04:05:34;;;;;;;4.05;2.40;;;;;;;;;;5111262;27;20043;-46
2022/07/13 04:08:00;;;;;;;3.53;3.22;;;;;;;;;;5109608;27;20042;-45
2022/07/13 04:10:25;;;;;;;5.03;3.35;;;;;;;;;;5115546;27;20542;-43
2022/07/13 04:12:50;;;;;;;4.28;3.47;;;;;;;;;;5113749;27;20050;-42
2022/07/13 04:15:16;;;;;;;3.28;2.33;;;;;;;;;;5096393;28;20055;-45
2022/07/13 04:17:42;;;;;;;4.07;3.05;;;;;;;;;;5114075;27;20271;-43
2022/07/13 04:20:11;;;;;;;3.47;3.17;;;;;;;;;;5109618;27;20403;-47
2022/07/13 04:22:36;;;;;;;4.43;3.17;;;;;;;;;;5115615;27;20043;-45
2022/07/13 04:25:16;;;;;;;4.32;2.88;;;;;;;;;;5113556;27;20043;-45
2022/07/13 04:27:44;;;;;;;4.53;3.50;;;;;;;;;;5112036;28;20032;-44
2022/07/13 04:30:09;;;;;;;4.22;2.85;;;;;;;;;;5107848;28;20039;-42
2022/07/13 04:32:35;;;;;;;4.05;3.28;;;;;;;;;;5111606;28;20142;-44
2022/07/13 04:35:00;;;;;;;4.05;3.40;;;;;;;;;;5112341;27;20035;-45
2022/07/13 04:37:25;;;;;;;4.40;3.08;;;;;;;;;;5110914;27;20043;-47
2022/07/13 04:39:50;;;;;;;5.55;3.20;;;;;;;;;;5115709;27;20058;-52
2022/07/13 04:42:16;;;;;;;7.18;2.92;;;;;;;;;;5110084;28;20044;-44
2022/07/13 04:44:41;;;;;;;6.13;3.65;;;;;;;;;;5111568;27;20051;-48
2022/07/13 04:47:07;;;;;;;9.43;3.63;;;;;;;;;;5115450;27;20042;-43
2022/07/13 04:49:33;;;;;;;5.90;3.20;;;;;;;;;;5111555;27;20035;-47
2022/07/13 04:51:58;;;;;;;3.35;2.25;;;;;;;;;;5113759;27;20076;-43
2022/07/13 04:54:23;;;;;;;5.47;3.17;;;;;;;;;;5110254;27;20178;-46
2022/07/13 04:56:49;;;;;;;6.20;3.63;;;;;;;;;;5114899;28;20047;-45
2022/07/13 04:59:14;;;;;;;42.25;10.05;;;;;;;;;;5111417;27;20127;-44
2022/07/13 05:01:40;;;;;;;4.70;4.03;;;;;;;;;;5110071;28;20408;-48
2022/07/13 05:04:06;;;;;;;2.88;2.15;;;;;;;;;;5110644;27;20047;-45
2022/07/13 05:06:31;;;;;;;4.00;2.83;;;;;;;;;;5108156;27;20152;-50
2022/07/13 05:08:57;;;;;;;4.65;2.60;;;;;;;;;;5095768;28;20043;-44
2022/07/13 05:11:22;;;;;;;3.60;3.05;;;;;;;;;;5107013;28;20053;-43
2022/07/13 05:13:48;;;;;;;5.25;3.53;;;;;;;;;;5114901;27;20079;-43
2022/07/13 05:16:13;;;;;;;10.63;5.22;;;;;;;;;;5114681;27;20138;-44
2022/07/13 05:18:39;;;;;;;9.48;3.05;;;;;;;;;;5117521;27;20067;-42
2022/07/13 05:21:04;;;;;;;5.72;4.05;;;;;;;;;;5107496;27;20138;-46
2022/07/13 05:23:29;;;;;;;3.55;3.15;;;;;;;;;;5115149;27;20039;-43
2022/07/13 05:25:55;;;;;;;14.73;4.85;;;;;;;;;;5110077;28;20069;-45
2022/07/13 05:28:20;;;;;;;12.07;3.75;;;;;;;;;;5113982;27;20158;-43
2022/07/13 05:30:46;;;;;;;3.92;3.17;;;;;;;;;;5110520;27;20503;-42
2022/07/13 05:33:11;;;;;;;13.40;3.60;;;;;;;;;;5114314;27;20481;-44
2022/07/13 05:35:37;;;;;;;5.05;2.00;;;;;;;;;;5110312;28;20597;-45
2022/07/13 05:38:02;;;;;;;4.97;2.20;;;;;;;;;;5113588;27;20043;-43
2022/07/13 05:40:27;;;;;;;19.38;4.18;;;;;;;;;;5109023;28;20372;-47
2022/07/13 05:42:52;;;;;;;15.40;3.90;;;;;;;;;;5115191;27;20120;-46
2022/07/13 05:45:18;;;;;;;6.38;2.80;;;;;;;;;;5110440;27;20044;-42
2022/07/13 05:47:45;;;;;;;4.35;3.17;;;;;;;;;;5110572;27;20072;-46
2022/07/13 05:50:13;;;;;;;11.43;4.15;;;;;;;;;;5090714;28;20028;-42
2022/07/13 05:52:39;;;;;;;10.48;3.83;;;;;;;;;;5114169;27;20549;-44
2022/07/13 05:55:05;;;;;;;16.52;4.85;;;;;;;;;;5114709;27;20100;-43
2022/07/13 05:57:30;;;;;;;7.80;5.07;;;;;;;;;;5113669;27;20051;-43
2022/07/13 05:59:56;;;;;;;12.77;5.75;;;;;;;;;;5115680;27;20039;-44
2022/07/13 06:02:21;;;;;;;13.35;4.78;;;;;;;;;;5116192;27;20047;-43
2022/07/13 06:04:46;;;;;;;13.00;5.72;;;;;;;;;;5115896;27;20256;-46
2022/07/13 06:07:12;;;;;;;5.13;3.97;;;;;;;;;;5115709;28;20115;-48
2022/07/13 06:09:37;;;;;;;21.05;5.10;;;;;;;;;;5114696;27;20415;-47
2022/07/13 06:12:03;;;;;;;18.88;4.90;;;;;;;;;;5112684;27;20044;-43
2022/07/13 06:14:28;;;;;;;10.02;4.72;;;;;;;;;;5113232;27;20478;-45
2022/07/13 06:16:53;;;;;;;5.30;4.28;;;;;;;;;;5115212;27;20074;-48
2022/07/13 06:19:19;;;;;;;13.63;5.20;;;;;;;;;;5115250;27;20113;-48
2022/07/13 06:21:44;;;;;;;9.98;6.40;;;;;;;;;;5116102;27;20043;-44
2022/07/13 06:24:09;;;;;;;54.15;13.10;;;;;;;;;;5113384;27;20076;-47
2022/07/13 06:26:35;;;;;;;15.10;8.15;;;;;;;;;;5113693;27;20063;-45
2022/07/13 06:29:00;;;;;;;8.05;5.35;;;;;;;;;;5112238;27;20626;-47
2022/07/13 06:31:25;;;;;;;4.25;3.47;;;;;;;;;;5116248;27;20095;-44
2022/07/13 06:33:52;;;;;;;6.45;3.50;;;;;;;;;;5115932;27;20094;-45
2022/07/13 06:36:18;;;;;;;7.60;3.42;;;;;;;;;;5119417;27;20070;-44
2022/07/13 06:38:43;;;;;;;3.65;3.13;;;;;;;;;;5107749;28;20051;-45
2022/07/13 06:41:09;;;;;;;20.98;4.68;;;;;;;;;;5113763;27;20710;-45
2022/07/13 06:43:34;;;;;;;7.68;6.18;;;;;;;;;;5113295;27;20035;-42
2022/07/13 06:46:00;;;;;;;9.13;5.65;;;;;;;;;;5113380;28;20046;-44
2022/07/13 06:48:25;;;;;;;8.13;5.50;;;;;;;;;;5119060;27;20032;-43
2022/07/13 06:50:51;;;;;;;8.07;5.50;;;;;;;;;;5115950;27;20426;-50
2022/07/13 06:53:16;;;;;;;15.63;7.65;;;;;;;;;;5108001;28;20051;-45
2022/07/13 06:55:41;;;;;;;13.65;7.70;;;;;;;;;;5115049;28;20038;-46
2022/07/13 06:58:06;;;;;;;14.05;8.75;;;;;;;;;;5112822;28;20038;-44
2022/07/13 07:00:32;;;;;;;22.13;12.98;;;;;;;;;;5112837;27;20048;-45
2022/07/13 07:02:57;;;;;;;16.83;8.98;;;;;;;;;;5117448;27;20490;-50
2022/07/13 07:05:23;;;;;;;22.15;9.27;;;;;;;;;;5111730;28;20043;-44
2022/07/13 07:07:48;;;;;;;17.88;9.45;;;;;;;;;;5114099;27;20040;-47
2022/07/13 07:10:13;;;;;;;19.88;8.30;;;;;;;;;;5121037;27;20046;-47
2022/07/13 07:12:39;;;;;;;8.93;5.65;;;;;;;;;;5119822;27;20040;-45
2022/07/13 07:15:04;;;;;;;10.10;6.50;;;;;;;;;;5117100;27;20417;-47
2022/07/13 07:17:30;;;;;;;6.45;5.82;;;;;;;;;;5110526;27;20051;-47
2022/07/13 07:19:59;;;;;;;7.15;5.10;;;;;;;;;;5112038;27;20058;-44
2022/07/13 07:22:25;;;;;;;7.80;5.80;;;;;;;;;;5115714;27;20084;-45
2022/07/13 07:24:51;;;;;;;10.45;6.32;;;;;;;;;;5109813;27;20078;-45
2022/07/13 07:27:16;;;;;;;5.85;5.05;;;;;;;;;;5112604;27;20048;-45
2022/07/13 07:29:41;;;;;;;3.80;3.50;;;;;;;;;;5117331;27;20066;-44
2022/07/13 07:32:07;;;;;;;10.95;3.33;;;;;;;;;;5115258;27;20421;-43
2022/07/13 07:34:33;;;;;;;14.50;3.67;;;;;;;;;;5117514;27;20490;-46
2022/07/13 07:36:58;;;;;;;10.38;3.50;;;;;;;;;;5095641;27;20051;-42
2022/07/13 07:39:24;;;;;;;15.32;5.85;;;;;;;;;;5112334;28;20510;-48
2022/07/13 07:41:49;;;;;;;17.50;7.50;;;;;;;;;;5117214;27;20062;-50
2022/07/13 07:44:14;;;;;;;8.95;6.40;;;;;;;;;;5094365;28;20040;-41
2022/07/13 07:46:40;;;;;;;4.85;3.65;;;;;;;;;;5115861;27;20046;-49
2022/07/13 07:49:06;;;;;;;6.95;6.20;;;;;;;;;;5117817;27;20067;-48
2022/07/13 07:51:31;;;;;;;6.35;4.60;;;;;;;;;;5115094;27;20077;-47
2022/07/13 07:53:56;;;;;;;5.55;4.28;;;;;;;;;;5116201;27;20048;-47
2022/07/13 07:56:22;;;;;;;5.75;4.28;;;;;;;;;;5115065;27;20143;-46
2022/07/13 07:58:48;;;;;;;6.20;3.42;;;;;;;;;;5115824;27;20154;-47
2022/07/13 08:01:13;;;;;;;8.88;1.80;;;;;;;;;;5120012;27;20217;-44
2022/07/13 08:03:38;;;;;;;4.05;2.88;;;;;;;;;;5109711;27;20095;-42
2022/07/13 08:06:04;;;;;;;1.70;1.15;;;;;;;;;;5112953;28;20119;-42
2022/07/13 08:08:29;;;;;;;2.60;1.75;;;;;;;;;;5115240;27;20516;-50
2022/07/13 08:10:54;;;;;;;3.47;1.98;;;;;;;;;;5114851;27;20040;-47
2022/07/13 08:13:20;;;;;;;6.43;3.03;;;;;;;;;;5109316;28;20073;-41
2022/07/13 08:15:45;;;;;;;3.75;1.48;;;;;;;;;;5112888;27;20047;-42
2022/07/13 08:18:11;;;;;;;2.58;2.05;;;;;;;;;;5106308;28;20039;-41
2022/07/13 08:20:36;;;;;;;6.15;2.47;;;;;;;;;;5113575;27;20053;-40
2022/07/13 08:23:50;;;;;;;3.65;2.15;;;;;;;;;;5114681;27;20073;-42
2022/07/13 08:25:48;;;;;;;0.73;0.60;;;;;;;;;;5114514;27;20514;-41
2022/07/13 08:28:13;;;;;;;11.52;2.13;;;;;;;;;;5116165;27;20043;-41
2022/07/13 08:30:41;;;;;;;2.80;2.42;;;;;;;;;;5113890;27;20118;-42
2022/07/13 08:33:06;;;;;;;7.32;1.45;;;;;;;;;;5108047;27;20043;-40
2022/07/13 08:38:35;;;;;;;1.38;0.73;;;;;;;;;;5048389;28;20136;-42
2022/07/13 08:41:01;;;;;;;1.33;1.13;;;;;;;;;;5097022;28;20051;-42
2022/07/13 08:43:27;;;;;;;1.98;1.20;;;;;;;;;;5116215;27;20066;-41
2022/07/13 08:45:52;;;;;;;1.38;0.88;;;;;;;;;;5110830;27;20050;-41
2022/07/13 08:48:20;;;;;;;1.83;1.30;;;;;;;;;;5115806;27;20039;-42
2022/07/13 08:50:46;;;;;;;0.98;0.70;;;;;;;;;;5107869;27;20716;-39
2022/07/13 08:53:12;;;;;;;8.27;1.73;;;;;;;;;;5112545;27;20498;-39
2022/07/13 08:55:38;;;;;;;0.75;0.52;;;;;;;;;;5108914;27;20035;-44
2022/07/13 08:58:03;;;;;;;1.45;1.00;;;;;;;;;;5109613;27;20048;-40
2022/07/13 09:00:29;;;;;;;1.08;0.73;;;;;;;;;;5110232;27;20148;-39
2022/07/13 09:02:54;;;;;;;1.58;0.60;;;;;;;;;;5112874;27;20074;-40
2022/07/13 09:05:22;;;;;;;2.92;1.00;;;;;;;;;;5104859;28;20053;-42
2022/07/13 09:08:00;;;;;;;1.95;1.35;;;;;;;;;;5113982;27;20034;-43
2022/07/13 09:10:26;;;;;;;5.13;0.93;;;;;;;;;;5113121;27;20066;-41
2022/07/13 09:12:51;;;;;;;6.30;0.82;;;;;;;;;;5111297;28;20480;-40
2022/07/13 09:15:16;;;;;;;5.80;2.85;;;;;;;;;;5109571;27;20051;-40
2022/07/13 09:17:43;;;;;;;2.08;1.45;;;;;;;;;;5111617;27;20384;-41
2022/07/13 09:20:08;;;;;;;1.42;1.00;;;;;;;;;;5112379;27;20148;-44
2022/07/13 09:22:36;;;;;;;4.85;2.42;;;;;;;;;;5110595;27;20063;-41
2022/07/13 09:25:01;;;;;;;13.55;5.82;;;;;;;;;;5111369;28;20515;-40
2022/07/13 09:27:29;;;;;;;7.13;4.00;;;;;;;;;;5111702;27;20039;-40
2022/07/13 09:29:54;;;;;;;5.75;2.17;;;;;;;;;;5108039;28;20135;-39
2022/07/13 09:32:20;;;;;;;1.05;0.63;;;;;;;;;;5112728;27;20050;-40
2022/07/13 09:34:46;;;;;;;3.83;0.95;;;;;;;;;;5108179;27;20046;-42
2022/07/13 09:37:13;;;;;;;5.25;1.80;;;;;;;;;;5112811;27;20047;-42
2022/07/13 09:39:56;;;;;;;1.17;0.47;;;;;;;;;;5112635;27;20035;-42
2022/07/13 09:42:33;;;;;;;1.05;0.85;;;;;;;;;;5112635;27;20475;-42
2022/07/13 09:47:46;;;;;;;1.63;0.90;;;;;;;;;;5107866;27;20526;-40
2022/07/13 09:50:12;;;;;;;1.52;0.90;;;;;;;;;;5110636;27;20067;-43
2022/07/13 09:52:37;;;;;;;2.70;1.70;;;;;;;;;;5111449;28;20554;-43
2022/07/13 09:55:04;;;;;;;4.50;2.03;;;;;;;;;;5115626;27;20503;-40
2022/07/13 09:57:32;;;;;;;2.63;1.98;;;;;;;;;;5110003;28;20142;-40
2022/07/13 09:59:58;;;;;;;4.70;3.33;;;;;;;;;;5112342;27;20051;-42
2022/07/13 10:02:24;;;;;;;6.68;3.13;;;;;;;;;;5115749;27;20044;-44
2022/07/13 10:04:49;;;;;;;1.90;1.10;;;;;;;;;;5111295;28;20052;-39
2022/07/13 10:07:15;;;;;;;1.63;1.27;;;;;;;;;;5114103;27;20043;-43
2022/07/13 10:09:41;;;;;;;1.83;1.02;;;;;;;;;;5111717;27;20036;-41
2022/07/13 10:12:07;;;;;;;2.92;1.23;;;;;;;;;;5112608;27;20074;-42
2022/07/13 10:14:33;;;;;;;3.95;1.58;;;;;;;;;;5111029;28;20142;-42
2022/07/13 10:17:06;;;;;;;5.47;1.67;;;;;;;;;;5115372;27;20158;-42
2022/07/13 10:19:32;;;;;;;4.50;1.15;;;;;;;;;;5113625;27;20513;-41
2022/07/13 10:22:09;;;;;;;2.65;1.17;;;;;;;;;;5111245;27;20064;-41
2022/07/13 10:24:35;;;;;;;5.38;1.52;;;;;;;;;;5107465;27;20476;-44
2022/07/13 10:27:22;;;;;;;2.08;1.38;;;;;;;;;;5116225;27;20538;-40
2022/07/13 10:29:57;;;;;;;2.30;0.75;;;;;;;;;;5111300;27;20530;-44
2022/07/13 10:32:25;;;;;;;7.43;1.50;;;;;;;;;;5109346;27;20047;-43
2022/07/13 10:34:59;;;;;;;2.20;0.73;;;;;;;;;;5106767;28;20040;-40
2022/07/13 10:37:26;;;;;;;0.85;0.63;;;;;;;;;;5110545;27;20044;-42
2022/07/13 10:40:11;;;;;;;11.77;1.55;;;;;;;;;;5113512;27;20529;-42
2022/07/13 10:43:05;;;;;;;1.20;0.90;;;;;;;;;;5117819;27;20172;-41
2022/07/13 10:45:34;;;;;;;2.47;0.85;;;;;;;;;;5096029;27;20047;-43
2022/07/13 10:48:00;;;;;;;1.75;1.00;;;;;;;;;;5115200;28;20501;-41
2022/07/13 10:50:38;;;;;;;2.42;1.60;;;;;;;;;;5112602;27;20534;-44
2022/07/13 10:53:03;;;;;;;4.15;1.50;;;;;;;;;;5112415;27;20035;-39
2022/07/13 10:55:29;;;;;;;6.47;3.42;;;;;;;;;;5115816;27;20055;-43
2022/07/13 10:57:54;;;;;;;1.65;1.23;;;;;;;;;;5117814;27;20466;-42
2022/07/13 11:00:35;;;;;;;2.40;1.30;;;;;;;;;;5118001;27;20047;-41
2022/07/13 11:03:06;;;;;;;2.75;1.35;;;;;;;;;;5115239;27;20147;-47
2022/07/13 11:05:35;;;;;;;1.45;1.23;;;;;;;;;;5115316;28;20391;-43
2022/07/13 11:08:16;;;;;;;1.90;1.13;;;;;;;;;;5114576;27;20048;-41
2022/07/13 11:10:41;;;;;;;1.38;1.15;;;;;;;;;;5107936;27;20471;-42
2022/07/13 11:13:09;;;;;;;2.05;0.93;;;;;;;;;;5115728;27;20122;-45
2022/07/13 11:15:53;;;;;;;7.65;1.45;;;;;;;;;;5113101;27;20039;-45
2022/07/13 11:18:22;;;;;;;0.88;0.82;;;;;;;;;;5110286;27;20137;-43
2022/07/13 11:21:02;;;;;;;2.40;1.27;;;;;;;;;;5113829;27;20082;-42
2022/07/13 11:26:18;;;;;;;10.15;1.65;;;;;;;;;;5119050;27;20085;-45
2022/07/13 11:29:01;;;;;;;1.25;0.90;;;;;;;;;;5115875;27;20051;-47
2022/07/13 11:31:27;;;;;;;1.45;1.05;;;;;;;;;;5114251;27;20162;-44
2022/07/13 11:33:53;;;;;;;3.13;1.52;;;;;;;;;;5115645;27;20204;-47
2022/07/13 11:36:19;;;;;;;4.35;1.45;;;;;;;;;;5114229;27;20180;-45
2022/07/13 11:38:45;;;;;;;1.65;1.20;;;;;;;;;;5113365;27;20047;-43
2022/07/13 11:41:17;;;;;;;2.55;1.02;;;;;;;;;;5114147;28;20049;-42
2022/07/13 11:43:46;;;;;;;1.60;0.70;;;;;;;;;;5113794;28;20070;-41
2022/07/13 11:46:11;;;;;;;3.30;1.60;;;;;;;;;;5117078;27;20135;-41
2022/07/13 11:48:36;;;;;;;0.82;0.68;;;;;;;;;;5110055;28;20084;-44
2022/07/13 11:51:05;;;;;;;1.25;0.45;;;;;;;;;;5117960;27;20042;-40
2022/07/13 11:53:31;;;;;;;2.20;0.82;;;;;;;;;;5117537;27;20057;-42
2022/07/13 11:55:58;;;;;;;1.45;0.90;;;;;;;;;;5118964;27;20043;-46
2022/07/13 11:58:28;;;;;;;6.85;0.88;;;;;;;;;;5119222;28;20046;-45
2022/07/13 12:00:54;;;;;;;1.90;0.93;;;;;;;;;;5116251;27;20073;-42
2022/07/13 12:03:25;;;;;;;1.88;1.13;;;;;;;;;;5116426;27;20482;-43
2022/07/13 12:05:51;;;;;;;0.55;0.35;;;;;;;;;;5114487;27;20047;-43
2022/07/13 12:08:16;;;;;;;1.77;0.60;;;;;;;;;;5117970;27;20051;-42
2022/07/13 12:10:42;;;;;;;1.40;0.85;;;;;;;;;;5115991;27;20055;-44
2022/07/13 12:13:07;;;;;;;1.58;0.90;;;;;;;;;;5114001;27;20036;-47
2022/07/13 12:15:33;;;;;;;1.25;0.55;;;;;;;;;;5113519;27;20130;-44
2022/07/13 12:18:02;;;;;;;1.75;0.95;;;;;;;;;;5110530;27;20046;-44
2022/07/13 12:20:31;;;;;;;5.47;0.55;;;;;;;;;;5115883;27;20119;-45
2022/07/13 12:22:57;;;;;;;1.55;0.77;;;;;;;;;;5113501;27;20108;-43
2022/07/13 12:25:22;;;;;;;1.15;0.75;;;;;;;;;;5112668;27;20490;-44
2022/07/13 12:27:50;;;;;;;0.75;0.52;;;;;;;;;;5106264;27;20130;-42
2022/07/13 12:30:15;;;;;;;1.25;0.57;;;;;;;;;;5113005;27;20091;-44
2022/07/13 12:33:20;;;;;;;1.35;0.85;;;;;;;;;;5112576;27;20079;-42
2022/07/13 12:35:45;;;;;;;5.45;1.30;;;;;;;;;;5004202;28;20623;-44
2022/07/13 12:38:12;;;;;;;8.63;1.27;;;;;;;;;;5003345;28;20281;-41
2022/07/13 12:40:41;;;;;;;1.15;0.60;;;;;;;;;;5051234;28;20051;-46
2022/07/13 12:43:19;;;;;;;7.73;1.50;;;;;;;;;;5108484;28;20046;-46
2022/07/13 12:45:46;;;;;;;1.85;1.02;;;;;;;;;;5112044;27;20054;-41
2022/07/13 12:48:12;;;;;;;1.83;1.27;;;;;;;;;;5114411;28;20099;-43
2022/07/13 12:50:37;;;;;;;0.82;0.55;;;;;;;;;;5114409;27;20150;-45
2022/07/13 12:53:02;;;;;;;1.15;0.75;;;;;;;;;;5113754;27;20039;-43
2022/07/13 12:55:28;;;;;;;11.88;1.42;;;;;;;;;;5115166;27;20092;-43
2022/07/13 12:57:53;;;;;;;1.80;1.02;;;;;;;;;;5114628;27;20055;-42
2022/07/13 13:00:23;;;;;;;1.67;1.10;;;;;;;;;;5112752;27;20525;-42
2022/07/13 13:02:49;;;;;;;4.10;1.85;;;;;;;;;;5112739;27;20043;-44
2022/07/13 13:05:14;;;;;;;1.13;0.68;;;;;;;;;;5111383;27;20043;-46
2022/07/13 13:07:39;;;;;;;1.63;0.95;;;;;;;;;;5111920;27;20171;-42
2022/07/13 13:10:05;;;;;;;9.40;1.00;;;;;;;;;;5110130;28;20615;-40
2022/07/13 13:12:31;;;;;;;1.83;1.25;;;;;;;;;;5112232;27;20525;-43
2022/07/13 13:14:58;;;;;;;1.75;0.85;;;;;;;;;;5113472;27;20126;-43
2022/07/13 13:17:24;;;;;;;3.80;2.30;;;;;;;;;;5110257;27;20039;-40
2022/07/13 13:19:49;;;;;;;1.35;0.40;;;;;;;;;;5112589;27;20062;-43
2022/07/13 13:22:15;;;;;;;4.65;2.08;;;;;;;;;;5110031;27;20085;-44
2022/07/13 13:24:41;;;;;;;1.48;1.02;;;;;;;;;;5113155;27;20570;-42
2022/07/13 13:27:06;;;;;;;2.55;1.33;;;;;;;;;;5111005;28;20046;-43
2022/07/13 13:32:19;;;;;;;1.10;0.68;;;;;;;;;;5110909;27;20112;-44
2022/07/13 13:34:45;;;;;;;6.53;1.05;;;;;;;;;;5111453;27;20096;-47
2022/07/13 13:37:11;;;;;;;2.28;0.70;;;;;;;;;;5110300;27;20044;-45
2022/07/13 13:39:36;;;;;;;5.07;1.23;;;;;;;;;;5110286;27;20056;-42
2022/07/13 13:42:01;;;;;;;2.25;0.93;;;;;;;;;;5113904;27;20040;-42
2022/07/13 13:44:27;;;;;;;1.35;0.90;;;;;;;;;;5110763;28;20090;-42
2022/07/13 13:46:52;;;;;;;2.42;1.33;;;;;;;;;;5114195;27;20046;-42
2022/07/13 13:49:18;;;;;;;0.73;0.57;;;;;;;;;;5095839;27;20035;-43
2022/07/13 13:51:43;;;;;;;7.72;0.65;;;;;;;;;;5116987;27;20123;-44
2022/07/13 13:54:08;;;;;;;0.70;0.52;;;;;;;;;;5115323;27;20055;-44
2022/07/13 13:56:34;;;;;;;1.15;0.85;;;;;;;;;;5112557;27;20043;-44
2022/07/13 13:58:59;;;;;;;10.32;0.73;;;;;;;;;;5114971;28;20040;-43
2022/07/13 14:01:24;;;;;;;0.70;0.60;;;;;;;;;;5111150;27;20044;-41
2022/07/13 14:03:50;;;;;;;1.60;1.05;;;;;;;;;;5117225;27;20636;-44
2022/07/13 14:06:15;;;;;;;1.33;0.90;;;;;;;;;;5110112;28;20204;-44
2022/07/13 14:08:45;;;;;;;2.17;1.23;;;;;;;;;;5107283;27;20506;-42
2022/07/13 14:11:13;;;;;;;1.77;0.70;;;;;;;;;;5115875;27;20526;-40
2022/07/13 14:13:39;;;;;;;2.05;1.30;;;;;;;;;;5113538;27;20056;-40
2022/07/13 14:16:05;;;;;;;1.10;0.57;;;;;;;;;;5108794;27;20124;-41
2022/07/13 14:18:31;;;;;;;1.00;0.65;;;;;;;;;;5114462;27;20570;-42
2022/07/13 14:20:56;;;;;;;13.13;1.60;;;;;;;;;;5116506;27;20071;-45
2022/07/13 14:23:21;;;;;;;8.13;1.95;;;;;;;;;;5115380;28;20086;-43
2022/07/13 14:25:47;;;;;;;1.50;0.98;;;;;;;;;;5117053;27;20065;-42
2022/07/13 14:28:12;;;;;;;3.35;2.42;;;;;;;;;;5114701;27;20046;-43
2022/07/13 14:30:37;;;;;;;1.67;1.15;;;;;;;;;;5115069;27;20088;-43
2022/07/13 14:33:03;;;;;;;3.28;1.15;;;;;;;;;;5115354;27;20048;-43
2022/07/13 14:35:28;;;;;;;1.15;0.60;;;;;;;;;;5112373;27;20055;-46
2022/07/13 14:37:53;;;;;;;10.70;2.30;;;;;;;;;;5113370;27;20043;-41
2022/07/13 14:40:19;;;;;;;1.63;0.93;;;;;;;;;;5116465;27;20047;-42
2022/07/13 14:42:44;;;;;;;1.25;0.70;;;;;;;;;;5115102;27;20116;-43
2022/07/13 14:45:09;;;;;;;1.77;0.77;;;;;;;;;;5117260;27;20038;-44
2022/07/13 14:47:35;;;;;;;2.38;1.60;;;;;;;;;;5118380;27;20491;-42
2022/07/13 14:50:00;;;;;;;1.08;0.82;;;;;;;;;;5111908;28;20031;-40